Mercyville, Missouri
Current Conditions -  °F | °C
As of 11:55 PM on Thursday 18 Dec 2014 (Local Time) from KIRK Reporting Station
Overcast Overcast  
Wind Chill: 29°   Ceiling: 2800
Heat Index: 29°   Visibility: 8mi
Dew Point: 27°   Wind: 3mph
Humidity: 92%   Direction: 110°ESE
Pressure: 30.29"   Gusts: NA
Location:  39.9225°N, 92.6337°W
Report Text: KIRK 190555Z AUTO 11003KT 8SM FEW016 OVC028 M02/M03 A3029 RMK AO2 SLP271 T10171028 11011 21022 410061039 53003
Loading
Personal Weather Stations






























Interactive Weather Map New forecast layout! Learn more

10-Day Weather Forecast

Advertisements
Track Severe Weather on mobile